Terminal Aerodrome Forecast
Issued by NWS Lake Charles, LA

Home | Current Version | Previous Version | Text Only | Print | Product List | Glossary On
Versions: 1 2 3 4 5 6 7 8 9 10 11 12 13 14 15 16 17 18 19 20 21
000
FTUS44 KLCH 281100
TAFLCH
TAF
KLCH 281120Z 2812/2912 36010KT P6SM VCSH OVC007
     FM281700 01010KT 6SM -SHRA OVC007
      TEMPO 2819/2823 4SM SHRA OVC004
     FM290200 01005KT 4SM BR OVC003=

USA.gov is the U.S. government's official web portal to all federal, state and local government web resources and services.